createdAt,value
2017-09-06T00:00:24.666Z,18.00
2017-09-06T00:00:57.184Z,18.00
2017-09-06T00:01:29.707Z,18.00
2017-09-06T00:02:02.240Z,18.00
2017-09-06T00:02:34.769Z,18.00
2017-09-06T00:03:07.302Z,18.00
2017-09-06T00:03:39.811Z,18.00
2017-09-06T00:04:12.357Z,18.00
2017-09-06T00:04:44.887Z,18.00
2017-09-06T00:05:17.412Z,18.00
2017-09-06T00:05:49.942Z,18.00
2017-09-06T00:06:22.485Z,18.00
2017-09-06T00:06:55.015Z,18.00
2017-09-06T00:07:27.534Z,18.00
2017-09-06T00:08:00.049Z,18.00
2017-09-06T00:08:32.603Z,18.00
2017-09-06T00:09:05.115Z,18.00
2017-09-06T00:09:37.647Z,18.00
2017-09-06T00:10:10.180Z,18.00
2017-09-06T00:10:42.703Z,18.00
2017-09-06T00:11:15.223Z,18.00
2017-09-06T00:11:47.762Z,18.00
2017-09-06T00:12:20.287Z,18.00
2017-09-06T00:12:52.802Z,18.00
2017-09-06T00:13:25.315Z,18.00
2017-09-06T00:13:57.830Z,18.00
2017-09-06T00:14:30.364Z,17.90
2017-09-06T00:15:02.910Z,17.90
2017-09-06T00:15:35.432Z,17.90
2017-09-06T00:16:07.945Z,17.90
2017-09-06T00:16:40.458Z,17.90
2017-09-06T00:17:13.024Z,17.90
2017-09-06T00:17:45.536Z,17.90
2017-09-06T00:18:18.050Z,17.90
2017-09-06T00:18:50.593Z,17.90
2017-09-06T00:19:23.132Z,17.90
2017-09-06T00:19:55.661Z,17.90
2017-09-06T00:20:28.181Z,17.90
2017-09-06T00:21:00.711Z,17.90
2017-09-06T00:21:33.249Z,17.90
2017-09-06T00:22:05.784Z,17.90
2017-09-06T00:22:38.317Z,17.90
2017-09-06T00:23:10.865Z,17.80
2017-09-06T00:23:43.400Z,17.80
2017-09-06T00:24:15.919Z,17.80
2017-09-06T00:24:48.810Z,17.80
2017-09-06T00:25:21.335Z,17.80
2017-09-06T00:25:53.886Z,17.80
2017-09-06T00:26:26.409Z,17.80
2017-09-06T00:26:58.926Z,17.80
2017-09-06T00:27:31.435Z,17.80
2017-09-06T00:28:03.953Z,17.80
2017-09-06T00:28:36.486Z,17.80
2017-09-06T00:29:09.026Z,17.80
2017-09-06T00:29:41.535Z,17.80
2017-09-06T00:30:14.051Z,17.80
2017-09-06T00:30:46.598Z,17.80
2017-09-06T00:31:19.126Z,17.80
2017-09-06T00:31:51.636Z,17.80
2017-09-06T00:32:24.147Z,17.80
2017-09-06T00:32:56.662Z,17.70
2017-09-06T00:33:29.204Z,17.70
2017-09-06T00:34:01.735Z,17.70
2017-09-06T00:34:34.302Z,17.70
2017-09-06T00:35:06.832Z,17.70
2017-09-06T00:35:39.348Z,17.70
2017-09-06T00:36:11.883Z,17.70
2017-09-06T00:36:44.407Z,17.70
2017-09-06T00:37:16.934Z,17.70
2017-09-06T00:37:49.476Z,17.70
2017-09-06T00:38:22.014Z,17.70
2017-09-06T00:38:54.541Z,17.70
2017-09-06T00:39:27.063Z,17.70
2017-09-06T00:39:59.591Z,17.70
2017-09-06T00:40:32.284Z,17.70
2017-09-06T00:41:04.800Z,17.70
2017-09-06T00:41:37.330Z,17.60
2017-09-06T00:42:09.867Z,17.60
2017-09-06T00:42:42.396Z,17.60
2017-09-06T00:43:14.915Z,17.60
2017-09-06T00:43:47.424Z,17.60
2017-09-06T00:44:20.001Z,17.60
2017-09-06T00:44:52.518Z,17.60
2017-09-06T00:45:25.043Z,17.60
2017-09-06T00:45:57.603Z,17.60
2017-09-06T00:46:30.114Z,17.30
2017-09-06T00:47:02.617Z,17.50
2017-09-06T00:47:35.154Z,17.50
2017-09-06T00:48:07.774Z,17.50
2017-09-06T00:48:40.289Z,17.50
2017-09-06T00:49:12.798Z,17.50
2017-09-06T00:49:45.605Z,17.50
2017-09-06T00:50:18.130Z,17.40
2017-09-06T00:50:50.635Z,17.40
2017-09-06T00:51:23.157Z,17.40
2017-09-06T00:51:55.656Z,17.30
2017-09-06T00:52:28.167Z,17.30
2017-09-06T00:53:00.680Z,17.30
2017-09-06T00:53:33.201Z,17.30
2017-09-06T00:54:05.755Z,17.30
2017-09-06T00:54:38.275Z,17.30
2017-09-06T00:55:10.793Z,17.30
2017-09-06T00:55:43.318Z,17.30
2017-09-06T00:56:15.851Z,17.30
2017-09-06T00:56:48.370Z,17.30
2017-09-06T00:57:20.902Z,17.30
2017-09-06T00:57:53.433Z,17.30
2017-09-06T00:58:25.958Z,17.20
2017-09-06T00:58:58.478Z,17.20
2017-09-06T00:59:30.991Z,17.20
2017-09-06T01:00:03.515Z,17.20
2017-09-06T01:00:36.038Z,17.20
2017-09-06T01:01:08.544Z,17.20
2017-09-06T01:01:41.064Z,17.20
2017-09-06T01:02:13.591Z,17.10
2017-09-06T01:02:46.124Z,17.10
2017-09-06T01:03:18.665Z,17.10
2017-09-06T01:03:51.189Z,17.10
2017-09-06T01:04:23.704Z,17.10
2017-09-06T01:04:56.222Z,17.10
2017-09-06T01:05:28.739Z,17.10
2017-09-06T01:06:01.280Z,17.00
2017-09-06T01:06:33.826Z,17.00
2017-09-06T01:07:06.331Z,17.00
2017-09-06T01:07:38.863Z,17.00
2017-09-06T01:08:11.389Z,17.10
2017-09-06T01:08:43.914Z,17.00
2017-09-06T01:09:16.466Z,17.00
2017-09-06T01:09:49.014Z,17.00
2017-09-06T01:10:21.555Z,17.00
2017-09-06T01:10:54.099Z,17.00
2017-09-06T01:11:27.414Z,17.00
2017-09-06T01:11:59.945Z,17.00
2017-09-06T01:12:32.468Z,17.00
2017-09-06T01:13:05.029Z,17.00
2017-09-06T01:13:37.553Z,17.00
2017-09-06T01:14:10.113Z,16.90
2017-09-06T01:14:42.655Z,16.90
2017-09-06T01:15:15.185Z,16.90
2017-09-06T01:15:47.740Z,16.90
2017-09-06T01:16:20.305Z,16.90
2017-09-06T01:16:52.860Z,16.90
2017-09-06T01:17:25.406Z,16.90
2017-09-06T01:17:57.919Z,16.90
2017-09-06T01:18:30.425Z,16.90
2017-09-06T01:19:02.943Z,16.90
2017-09-06T01:19:35.472Z,16.90
2017-09-06T01:20:08.000Z,16.90
2017-09-06T01:20:40.501Z,16.90
2017-09-06T01:21:13.003Z,16.90
2017-09-06T01:21:45.556Z,16.90
2017-09-06T01:22:18.096Z,17.00
2017-09-06T01:22:50.649Z,16.90
2017-09-06T01:23:23.195Z,17.00
2017-09-06T01:23:55.728Z,17.00
2017-09-06T01:24:28.264Z,17.00
2017-09-06T01:25:00.779Z,17.00
2017-09-06T01:25:33.310Z,17.00
2017-09-06T01:26:05.845Z,17.00
2017-09-06T01:26:38.393Z,17.00
2017-09-06T01:27:10.903Z,17.00
2017-09-06T01:27:43.479Z,17.00
2017-09-06T01:28:16.010Z,17.00
2017-09-06T01:28:48.517Z,17.00
2017-09-06T01:29:21.033Z,17.00
2017-09-06T01:29:53.549Z,17.00
2017-09-06T01:30:26.085Z,17.00
2017-09-06T01:30:58.590Z,17.00
2017-09-06T01:31:31.107Z,17.00
2017-09-06T01:32:03.649Z,17.00
2017-09-06T01:32:36.187Z,17.00
2017-09-06T01:33:08.719Z,17.00
2017-09-06T01:33:41.250Z,17.00
2017-09-06T01:34:13.782Z,17.00
2017-09-06T01:34:46.299Z,17.00
2017-09-06T01:35:18.823Z,17.00
2017-09-06T01:35:51.357Z,17.00
2017-09-06T01:36:23.884Z,17.00
2017-09-06T01:42:54.844Z,17.00
2017-09-06T01:43:27.355Z,17.00
2017-09-06T01:43:59.915Z,17.00
2017-09-06T01:44:32.448Z,17.00
2017-09-06T01:45:04.977Z,17.00
2017-09-06T01:45:37.501Z,17.00
2017-09-06T01:46:10.017Z,17.00
2017-09-06T01:46:42.537Z,17.10
2017-09-06T01:47:15.079Z,17.10
2017-09-06T01:47:47.598Z,17.10
2017-09-06T01:48:20.130Z,17.10
2017-09-06T01:48:52.675Z,17.10
2017-09-06T01:49:25.190Z,17.10
2017-09-06T01:49:57.689Z,17.10
2017-09-06T01:50:30.265Z,17.10
2017-09-06T01:51:02.776Z,17.10
2017-09-06T01:51:35.286Z,17.10
2017-09-06T01:52:07.808Z,17.10
2017-09-06T01:52:41.120Z,17.10
2017-09-06T01:53:13.629Z,17.10
2017-09-06T01:53:46.150Z,17.10
2017-09-06T01:54:18.691Z,17.10
2017-09-06T01:54:51.207Z,17.10
2017-09-06T01:55:23.730Z,17.10
2017-09-06T01:55:56.247Z,17.10
2017-09-06T01:56:28.776Z,17.10
2017-09-06T01:57:01.302Z,17.10
2017-09-06T01:57:33.830Z,17.10
2017-09-06T01:58:06.361Z,17.10
2017-09-06T01:58:38.890Z,17.10
2017-09-06T01:59:11.416Z,17.10
2017-09-06T01:59:43.939Z,17.10
2017-09-06T02:00:16.455Z,17.10
2017-09-06T02:00:48.963Z,17.10
2017-09-06T02:01:21.491Z,17.10
2017-09-06T02:01:54.054Z,17.10
2017-09-06T02:02:26.573Z,17.10
2017-09-06T02:02:59.090Z,17.10
2017-09-06T02:03:31.619Z,17.10
2017-09-06T02:04:04.141Z,17.10
2017-09-06T02:04:36.684Z,17.10
2017-09-06T02:05:09.202Z,17.10
2017-09-06T02:05:41.729Z,17.10
2017-09-06T02:06:14.251Z,17.10
2017-09-06T02:06:46.780Z,17.10
2017-09-06T02:07:19.318Z,17.10
2017-09-06T02:07:51.859Z,17.10
2017-09-06T02:08:24.407Z,17.20
2017-09-06T02:08:56.954Z,17.10
2017-09-06T02:09:29.467Z,17.10
2017-09-06T02:10:02.022Z,17.10
2017-09-06T02:10:34.551Z,17.10
2017-09-06T02:11:07.080Z,17.10
2017-09-06T02:11:39.610Z,17.10
2017-09-06T02:12:12.142Z,17.10
2017-09-06T02:12:44.680Z,17.10
2017-09-06T02:13:17.203Z,17.10
2017-09-06T02:13:49.812Z,17.10
2017-09-06T02:14:22.337Z,17.10
2017-09-06T02:14:54.862Z,17.10
2017-09-06T02:15:27.399Z,17.10
2017-09-06T02:15:59.918Z,17.10
2017-09-06T02:16:32.448Z,17.10
2017-09-06T02:17:04.974Z,17.10
2017-09-06T02:17:37.521Z,17.10
2017-09-06T02:18:10.058Z,17.10
2017-09-06T02:18:42.570Z,17.10
2017-09-06T02:19:15.115Z,17.10
2017-09-06T02:19:47.661Z,17.10
2017-09-06T02:20:20.208Z,17.10
2017-09-06T02:20:52.739Z,17.10
2017-09-06T02:21:25.250Z,17.10
2017-09-06T02:21:57.789Z,17.10
2017-09-06T02:22:30.324Z,17.10
2017-09-06T02:23:02.862Z,17.10
2017-09-06T02:23:35.379Z,17.10
2017-09-06T02:24:07.885Z,17.10
2017-09-06T02:24:40.398Z,17.10
2017-09-06T02:25:12.910Z,17.10
2017-09-06T02:25:45.453Z,17.10
2017-09-06T02:26:17.982Z,17.10
2017-09-06T02:26:50.511Z,17.10
2017-09-06T02:27:23.032Z,17.10
2017-09-06T02:27:55.583Z,17.10
2017-09-06T02:28:28.118Z,17.10
2017-09-06T02:29:01.393Z,17.10
2017-09-06T02:29:33.902Z,17.10
2017-09-06T02:30:06.435Z,17.10
2017-09-06T02:30:38.957Z,17.10
2017-09-06T02:31:11.466Z,17.10
2017-09-06T02:31:44.023Z,17.10
2017-09-06T02:32:16.530Z,17.10
2017-09-06T02:32:49.040Z,17.10
2017-09-06T02:33:21.551Z,17.10
2017-09-06T02:33:54.080Z,17.10
2017-09-06T02:34:26.612Z,17.10
2017-09-06T02:34:59.138Z,17.10
2017-09-06T02:35:31.662Z,17.10
2017-09-06T02:36:04.179Z,17.10
2017-09-06T02:36:36.694Z,17.10
2017-09-06T02:37:09.239Z,17.10
2017-09-06T02:37:42.531Z,17.10
2017-09-06T02:38:15.050Z,17.10
2017-09-06T02:38:47.635Z,17.10
2017-09-06T02:39:20.156Z,17.10
2017-09-06T02:39:52.692Z,17.10
2017-09-06T02:40:25.210Z,17.10
2017-09-06T02:40:57.731Z,17.10
2017-09-06T02:41:30.255Z,17.10
2017-09-06T02:42:02.784Z,17.10
2017-09-06T02:42:35.570Z,17.10
2017-09-06T02:43:08.088Z,17.10
2017-09-06T02:43:40.628Z,17.10
2017-09-06T02:44:13.157Z,17.10
2017-09-06T02:44:45.676Z,17.10
2017-09-06T02:45:18.217Z,17.10
2017-09-06T02:45:50.765Z,17.10
2017-09-06T02:46:23.293Z,17.10
2017-09-06T02:46:55.821Z,17.10
2017-09-06T02:47:28.328Z,17.10
2017-09-06T02:48:00.861Z,17.10
2017-09-06T02:48:33.399Z,17.10
2017-09-06T02:49:05.914Z,17.10
2017-09-06T02:49:38.423Z,17.10
2017-09-06T02:50:10.956Z,17.10
2017-09-06T02:50:43.504Z,17.10
2017-09-06T02:51:16.056Z,17.10
2017-09-06T02:51:48.593Z,17.00
2017-09-06T02:52:21.195Z,17.00
2017-09-06T02:52:53.736Z,17.00
2017-09-06T02:53:26.295Z,17.00
2017-09-06T02:53:58.822Z,16.90
2017-09-06T02:54:31.339Z,16.90
2017-09-06T02:55:03.882Z,16.90
2017-09-06T02:55:36.400Z,16.80
2017-09-06T02:56:08.919Z,16.80
2017-09-06T02:56:41.431Z,16.80
2017-09-06T02:57:13.943Z,16.80
2017-09-06T02:57:46.447Z,16.80
2017-09-06T02:58:18.972Z,16.80
2017-09-06T02:58:51.503Z,16.80
2017-09-06T02:59:24.018Z,16.80
2017-09-06T02:59:56.551Z,16.80
2017-09-06T03:00:29.078Z,16.80
2017-09-06T03:01:01.604Z,16.80
2017-09-06T03:01:34.142Z,16.80
2017-09-06T03:02:06.671Z,16.80
2017-09-06T03:02:39.221Z,16.80
2017-09-06T03:03:11.753Z,16.80
2017-09-06T03:03:44.278Z,16.80
2017-09-06T03:04:16.811Z,16.80
2017-09-06T03:04:49.350Z,16.80
2017-09-06T03:05:21.878Z,16.80
2017-09-06T03:05:54.413Z,16.70
2017-09-06T03:06:26.952Z,16.70
2017-09-06T03:06:59.489Z,16.70
2017-09-06T03:07:32.004Z,16.70
2017-09-06T03:08:04.556Z,16.70
2017-09-06T03:08:37.079Z,16.70
2017-09-06T03:09:09.607Z,16.70
2017-09-06T03:09:42.138Z,16.70
2017-09-06T03:10:14.684Z,16.70
2017-09-06T03:10:47.208Z,16.70
2017-09-06T03:11:19.728Z,16.70
2017-09-06T03:11:52.275Z,16.70
2017-09-06T03:12:24.810Z,16.70
2017-09-06T03:12:57.383Z,16.80
2017-09-06T03:13:29.923Z,16.70
2017-09-06T03:14:02.463Z,16.80
2017-09-06T03:14:34.986Z,16.80
2017-09-06T03:15:07.522Z,16.80
2017-09-06T03:15:40.061Z,16.80
2017-09-06T03:16:12.599Z,16.80
2017-09-06T03:16:45.132Z,16.70
2017-09-06T03:17:17.661Z,16.70
2017-09-06T03:17:50.181Z,16.70
2017-09-06T03:18:22.702Z,16.70
2017-09-06T03:18:55.232Z,16.70
2017-09-06T03:19:27.829Z,16.70
2017-09-06T03:20:00.340Z,16.60
2017-09-06T03:20:32.892Z,16.60
2017-09-06T03:21:05.414Z,16.60
2017-09-06T03:21:37.942Z,16.60
2017-09-06T03:22:10.484Z,16.50
2017-09-06T03:22:43.010Z,16.50
2017-09-06T03:23:15.531Z,16.50
2017-09-06T03:23:48.063Z,16.50
2017-09-06T03:24:20.641Z,16.50
2017-09-06T03:24:53.157Z,16.50
2017-09-06T03:25:25.701Z,16.50
2017-09-06T03:25:58.241Z,16.60
2017-09-06T03:26:30.803Z,16.50
2017-09-06T03:27:03.321Z,16.50
2017-09-06T03:27:35.861Z,16.50
2017-09-06T03:28:08.396Z,16.50
2017-09-06T03:28:40.925Z,16.50
2017-09-06T03:29:13.448Z,16.50
2017-09-06T03:29:45.978Z,16.50
2017-09-06T03:30:18.498Z,16.50
2017-09-06T03:30:51.013Z,16.60
2017-09-06T03:31:23.563Z,16.60
2017-09-06T03:31:56.103Z,16.60
2017-09-06T03:32:28.645Z,16.60
2017-09-06T03:33:01.178Z,16.60
2017-09-06T03:33:33.730Z,16.60
2017-09-06T03:34:06.259Z,16.60
2017-09-06T03:34:38.830Z,16.60
2017-09-06T03:35:11.364Z,16.60
2017-09-06T03:35:43.908Z,16.60
2017-09-06T03:36:16.439Z,16.60
2017-09-06T03:36:48.991Z,16.60
2017-09-06T03:37:21.511Z,16.60
2017-09-06T03:37:54.052Z,16.60
2017-09-06T03:38:26.599Z,16.60
2017-09-06T03:38:59.114Z,16.60
2017-09-06T03:39:31.641Z,16.70
2017-09-06T03:40:04.172Z,16.70
2017-09-06T03:40:36.735Z,16.70
2017-09-06T03:41:09.242Z,16.70
2017-09-06T03:41:41.754Z,16.60
2017-09-06T03:42:14.311Z,16.70
2017-09-06T03:42:46.830Z,16.70
2017-09-06T03:43:19.608Z,16.70
2017-09-06T03:43:52.961Z,16.70
2017-09-06T03:44:25.701Z,16.70
2017-09-06T03:44:59.009Z,16.70
2017-09-06T03:45:31.798Z,16.70
2017-09-06T03:46:04.352Z,16.70
2017-09-06T03:46:38.820Z,16.70
2017-09-06T03:47:11.358Z,16.70
2017-09-06T03:47:44.219Z,16.70
2017-09-06T03:48:17.047Z,16.70
2017-09-06T04:01:51.305Z,16.70
2017-09-06T04:15:23.891Z,16.40
2017-09-06T04:15:56.400Z,16.50
2017-09-06T04:16:29.304Z,16.50
2017-09-06T04:17:02.341Z,16.50
2017-09-06T04:17:34.879Z,16.50
2017-09-06T04:18:08.366Z,16.50
2017-09-06T04:18:41.322Z,16.50
2017-09-06T04:19:14.182Z,16.50
2017-09-06T04:19:46.714Z,16.50
2017-09-06T04:20:19.582Z,16.50
2017-09-06T04:33:53.110Z,16.50
2017-09-06T04:34:25.691Z,16.40
2017-09-06T04:34:59.054Z,16.40
2017-09-06T04:48:31.686Z,16.30
2017-09-06T04:49:04.555Z,16.30
2017-09-06T04:49:37.221Z,16.30
2017-09-06T04:50:09.875Z,16.20
2017-09-06T04:50:42.433Z,16.30
2017-09-06T04:51:15.294Z,16.30
2017-09-06T04:51:47.801Z,16.20
2017-09-06T04:52:21.256Z,16.20
2017-09-06T05:05:53.889Z,16.20
2017-09-06T05:06:28.073Z,16.30
2017-09-06T05:07:02.065Z,16.30
2017-09-06T05:07:34.661Z,16.30
2017-09-06T05:08:07.960Z,16.40
2017-09-06T05:08:40.986Z,16.40
2017-09-06T05:09:13.500Z,16.40
2017-09-06T05:09:47.039Z,16.40
2017-09-06T05:20:05.559Z,16.50
2017-09-06T05:20:38.085Z,16.80
2017-09-06T05:21:10.613Z,16.80
2017-09-06T05:21:43.398Z,16.80
2017-09-06T05:35:17.117Z,16.80
2017-09-06T05:35:50.716Z,17.00
2017-09-06T05:36:24.354Z,17.00
2017-09-06T05:36:58.039Z,17.00
2017-09-06T05:37:31.898Z,17.00
2017-09-06T05:38:05.501Z,17.00
2017-09-06T05:38:41.064Z,17.00
2017-09-06T05:39:14.757Z,17.10
2017-09-06T05:52:47.421Z,17.10
2017-09-06T05:53:20.304Z,17.20
2017-09-06T05:53:54.125Z,17.20
2017-09-06T05:54:26.657Z,17.20
2017-09-06T05:54:59.579Z,17.20
2017-09-06T05:55:33.957Z,17.20
2017-09-06T05:56:07.322Z,17.20
2017-09-06T05:56:40.832Z,17.20
2017-09-06T05:57:13.378Z,17.20
2017-09-06T05:57:47.122Z,17.30
2017-09-06T05:58:21.374Z,17.30
2017-09-06T05:58:55.988Z,17.30
2017-09-06T05:59:29.740Z,17.30
2017-09-06T06:00:03.635Z,17.30
2017-09-06T06:00:36.148Z,17.30
2017-09-06T06:01:08.683Z,17.30
2017-09-06T06:01:41.275Z,17.30
2017-09-06T06:02:13.819Z,17.30
2017-09-06T06:02:46.669Z,17.40
2017-09-06T06:03:19.574Z,17.30
2017-09-06T06:03:52.117Z,17.30
2017-09-06T06:04:25.464Z,17.30
2017-09-06T06:04:58.158Z,17.30
2017-09-06T06:15:17.237Z,17.30
2017-09-06T06:25:35.131Z,17.50
2017-09-06T06:26:07.749Z,17.60
2017-09-06T06:26:41.268Z,17.60
2017-09-06T06:27:14.988Z,17.60
2017-09-06T06:27:47.525Z,17.60
2017-09-06T06:41:21.179Z,17.60
2017-09-06T06:54:54.470Z,17.90
2017-09-06T07:05:12.611Z,17.90
2017-09-06T07:05:45.179Z,17.90
2017-09-06T07:06:18.113Z,17.90
2017-09-06T07:06:51.473Z,17.90
2017-09-06T07:07:24.120Z,17.90
2017-09-06T07:07:57.583Z,17.90
2017-09-06T07:08:30.999Z,17.90
2017-09-06T07:09:04.453Z,17.90
2017-09-06T07:09:36.980Z,17.90
2017-09-06T07:23:09.955Z,17.90
2017-09-06T07:23:42.930Z,17.90
2017-09-06T07:24:16.870Z,17.90
2017-09-06T07:24:49.803Z,17.90
2017-09-06T07:25:23.628Z,17.90
2017-09-06T07:25:56.494Z,17.90
2017-09-06T07:26:29.043Z,17.90
2017-09-06T07:27:01.798Z,17.90
2017-09-06T07:27:34.543Z,17.90
2017-09-06T07:28:07.299Z,17.90
2017-09-06T07:28:41.068Z,17.90
2017-09-06T07:29:13.598Z,17.90
2017-09-06T07:29:46.128Z,17.90
2017-09-06T07:30:19.163Z,17.90
2017-09-06T07:30:51.716Z,17.90
2017-09-06T07:31:25.204Z,17.90
2017-09-06T07:31:59.747Z,17.90
2017-09-06T07:32:32.579Z,18.00
2017-09-06T07:33:06.728Z,17.90
2017-09-06T07:46:39.338Z,17.90
2017-09-06T07:47:12.273Z,18.00
2017-09-06T07:47:45.229Z,18.00
2017-09-06T07:48:18.190Z,18.00
2017-09-06T07:48:52.701Z,18.00
2017-09-06T07:59:10.662Z,18.00
2017-09-06T07:59:43.177Z,18.10
2017-09-06T08:00:15.968Z,18.00
2017-09-06T08:13:48.919Z,18.00
2017-09-06T08:14:21.463Z,18.10
2017-09-06T08:14:54.316Z,18.00
2017-09-06T08:15:27.528Z,18.10
2017-09-06T08:16:00.828Z,18.00
2017-09-06T08:16:34.988Z,18.00
2017-09-06T08:17:08.389Z,18.00
2017-09-06T08:17:41.239Z,18.10
2017-09-06T08:31:14.652Z,18.10
2017-09-06T08:31:47.616Z,18.10
2017-09-06T08:32:20.124Z,18.10
2017-09-06T08:32:53.184Z,18.10
2017-09-06T08:33:25.768Z,18.10
2017-09-06T08:33:59.380Z,18.10
2017-09-06T08:34:32.667Z,18.10
2017-09-06T08:35:05.216Z,18.10
2017-09-06T08:35:38.022Z,18.10
2017-09-06T08:36:10.552Z,18.10
2017-09-06T08:36:46.110Z,18.10
2017-09-06T08:37:19.609Z,18.10
2017-09-06T08:37:52.770Z,18.10
2017-09-06T08:38:25.596Z,18.10
2017-09-06T08:38:59.065Z,18.10
2017-09-06T08:39:32.872Z,18.20
2017-09-06T08:40:06.631Z,18.10
2017-09-06T08:40:39.367Z,18.10
2017-09-06T08:41:12.178Z,18.10
2017-09-06T08:41:45.613Z,18.10
2017-09-06T08:55:18.186Z,18.10
2017-09-06T08:55:50.750Z,18.20
2017-09-06T08:56:23.944Z,18.20
2017-09-06T08:56:56.857Z,18.30
2017-09-06T08:57:30.725Z,18.30
2017-09-06T08:58:03.239Z,18.30
2017-09-06T08:58:35.787Z,18.30
2017-09-06T08:59:09.546Z,18.30
2017-09-06T09:12:42.645Z,18.30
2017-09-06T09:26:15.667Z,18.60
2017-09-06T09:26:49.380Z,19.20
2017-09-06T09:27:22.240Z,19.20
2017-09-06T09:40:54.826Z,19.20
2017-09-06T09:41:27.742Z,20.30
2017-09-06T09:42:01.842Z,20.30
2017-09-06T09:42:34.676Z,20.40
2017-09-06T09:43:08.182Z,20.40
2017-09-06T09:43:41.722Z,20.50
2017-09-06T09:44:14.808Z,20.50
2017-09-06T09:44:47.344Z,20.60
2017-09-06T09:45:21.432Z,20.60
2017-09-06T09:45:54.388Z,20.60
2017-09-06T09:46:28.049Z,20.70
2017-09-06T09:56:45.691Z,20.70
2017-09-06T09:57:18.547Z,20.80
2017-09-06T09:57:51.195Z,20.80
2017-09-06T09:58:24.426Z,20.80
2017-09-06T10:11:58.055Z,20.80
2017-09-06T10:12:31.189Z,20.50
2017-09-06T10:13:05.191Z,20.50
2017-09-06T10:13:37.932Z,20.50
2017-09-06T10:14:10.450Z,20.40
2017-09-06T10:14:43.782Z,20.40
2017-09-06T10:25:01.351Z,20.40
2017-09-06T10:25:36.307Z,20.00
2017-09-06T10:26:09.677Z,20.00
2017-09-06T10:26:43.305Z,20.00
2017-09-06T10:27:15.832Z,20.00
2017-09-06T10:27:48.673Z,20.00
2017-09-06T10:28:22.613Z,20.00
2017-09-06T10:29:00.118Z,20.00
2017-09-06T10:39:18.030Z,20.00
2017-09-06T10:39:51.003Z,19.90
2017-09-06T10:40:23.919Z,19.90
2017-09-06T10:40:56.441Z,19.90
2017-09-06T10:41:29.746Z,19.90
2017-09-06T10:55:02.630Z,19.90
2017-09-06T10:55:35.179Z,20.00
2017-09-06T10:56:08.103Z,20.00
2017-09-06T10:56:41.611Z,20.00
2017-09-06T10:57:14.960Z,20.00
2017-09-06T10:57:47.853Z,20.00
2017-09-06T11:08:05.890Z,20.10
2017-09-06T11:08:39.025Z,20.30
2017-09-06T11:09:15.752Z,20.30
2017-09-06T11:09:48.330Z,20.30
2017-09-06T11:23:21.004Z,20.30
2017-09-06T11:23:54.916Z,20.50
2017-09-06T11:24:27.730Z,20.50
2017-09-06T11:25:00.941Z,20.50
2017-09-06T11:35:19.430Z,20.50
2017-09-06T11:35:52.264Z,20.60
2017-09-06T11:36:25.924Z,20.70
2017-09-06T11:36:59.384Z,20.60
2017-09-06T11:37:32.390Z,20.70
2017-09-06T11:38:04.917Z,20.70
2017-09-06T11:51:37.532Z,20.70
2017-09-06T11:52:10.030Z,21.00
2017-09-06T12:05:42.966Z,21.00
2017-09-06T12:06:15.503Z,21.30
2017-09-06T12:06:48.272Z,21.40
2017-09-06T12:07:21.589Z,21.40
2017-09-06T12:07:55.802Z,21.40
2017-09-06T12:08:28.681Z,21.40
2017-09-06T12:09:01.482Z,21.40
2017-09-06T12:09:33.995Z,21.50
2017-09-06T12:10:06.516Z,21.50
2017-09-06T12:10:39.086Z,21.50
2017-09-06T12:11:12.145Z,21.50
2017-09-06T12:11:45.074Z,21.60
2017-09-06T12:12:17.870Z,21.60
2017-09-06T12:12:51.275Z,21.60
2017-09-06T12:26:25.804Z,21.60
2017-09-06T12:26:58.315Z,22.40
2017-09-06T12:27:30.840Z,22.40
2017-09-06T12:28:03.776Z,22.40
2017-09-06T12:28:36.627Z,22.50
2017-09-06T12:29:10.406Z,22.50
2017-09-06T12:29:43.275Z,22.60
2017-09-06T12:30:15.848Z,22.60
2017-09-06T12:30:48.923Z,22.60
2017-09-06T12:31:21.469Z,22.70
2017-09-06T12:44:54.403Z,22.70
2017-09-06T12:45:27.204Z,22.90
2017-09-06T12:46:00.109Z,22.90
2017-09-06T12:46:32.960Z,22.90
2017-09-06T12:47:06.128Z,22.90
2017-09-06T12:47:39.790Z,23.00
2017-09-06T12:48:13.050Z,23.00
2017-09-06T12:48:45.567Z,23.00
2017-09-06T12:49:18.130Z,23.00
2017-09-06T12:49:50.651Z,22.90
2017-09-06T13:03:18.577Z,22.90
2017-09-06T13:03:51.940Z,22.50
2017-09-06T13:04:25.173Z,22.50
2017-09-06T13:17:58.042Z,22.40
2017-09-06T13:18:30.963Z,22.00
2017-09-06T13:32:03.806Z,22.00
2017-09-06T13:32:36.340Z,21.40
2017-09-06T13:33:08.847Z,21.40
2017-09-06T13:33:41.371Z,21.30
2017-09-06T13:34:13.910Z,21.20
2017-09-06T13:34:46.423Z,21.20
2017-09-06T13:35:18.943Z,21.10
2017-09-06T13:35:51.477Z,21.10
2017-09-06T13:36:24.003Z,21.00
2017-09-06T13:36:56.529Z,21.00
2017-09-06T13:37:29.866Z,20.90
2017-09-06T13:47:48.184Z,20.80
2017-09-06T13:48:20.802Z,20.10
2017-09-06T13:48:53.358Z,20.00
2017-09-06T13:49:26.184Z,20.00
2017-09-06T13:49:58.839Z,20.00
2017-09-06T13:50:31.526Z,20.00
2017-09-06T13:51:05.812Z,19.90
2017-09-06T14:04:38.650Z,19.90
2017-09-06T14:05:12.593Z,19.60
2017-09-06T14:05:45.495Z,19.60
2017-09-06T14:06:18.900Z,19.60
2017-09-06T14:06:52.878Z,19.60
2017-09-06T14:17:11.075Z,19.60
2017-09-06T14:30:44.650Z,19.70
2017-09-06T14:44:17.263Z,19.50
2017-09-06T14:44:50.238Z,19.30
2017-09-06T14:45:23.159Z,19.20
2017-09-06T14:45:55.737Z,19.20
2017-09-06T14:46:28.778Z,19.20
2017-09-06T14:47:02.106Z,19.20
2017-09-06T14:47:35.012Z,19.20
2017-09-06T14:48:07.930Z,19.20
2017-09-06T14:48:41.929Z,19.10
2017-09-06T14:49:16.770Z,19.10
2017-09-06T14:49:49.317Z,19.10
2017-09-06T14:50:22.268Z,19.10
2017-09-06T14:50:55.278Z,19.10
2017-09-06T14:51:27.842Z,19.10
2017-09-06T14:52:00.399Z,19.10
2017-09-06T14:52:33.825Z,19.10
2017-09-06T14:53:06.350Z,19.10
2017-09-06T14:53:39.215Z,19.10
2017-09-06T14:54:12.705Z,19.10
2017-09-06T14:54:45.212Z,19.10
2017-09-06T14:55:18.028Z,19.10
2017-09-06T14:55:50.552Z,19.10
2017-09-06T14:56:24.239Z,19.10
2017-09-06T14:56:57.509Z,19.00
2017-09-06T14:57:30.810Z,19.10
2017-09-06T14:58:06.008Z,19.10
2017-09-06T14:58:38.571Z,19.00
2017-09-06T15:12:11.187Z,19.00
2017-09-06T15:12:43.718Z,18.90
2017-09-06T15:13:17.310Z,18.90
2017-09-06T15:13:49.851Z,18.90
2017-09-06T15:14:24.005Z,18.90
2017-09-06T15:14:56.857Z,18.90
2017-09-06T15:15:29.768Z,18.90
2017-09-06T15:29:03.600Z,18.90
2017-09-06T15:29:38.134Z,18.90
2017-09-06T15:39:55.722Z,18.90
2017-09-06T15:40:33.699Z,18.80
2017-09-06T15:41:06.287Z,18.70
2017-09-06T15:41:39.180Z,18.70
2017-09-06T15:42:12.042Z,18.70
2017-09-06T15:42:45.251Z,18.70
2017-09-06T15:43:18.149Z,18.70
2017-09-06T15:43:50.699Z,18.70
2017-09-06T15:44:24.007Z,18.70
2017-09-06T15:44:57.824Z,18.70
2017-09-06T15:45:30.842Z,18.60
2017-09-06T15:46:04.503Z,18.60
2017-09-06T15:59:38.150Z,18.60
2017-09-06T16:00:10.704Z,18.50
2017-09-06T16:00:43.229Z,18.50
2017-09-06T16:01:16.126Z,18.50
2017-09-06T16:01:48.688Z,18.50
2017-09-06T16:15:21.619Z,18.60
2017-09-06T16:15:54.267Z,18.70
2017-09-06T16:29:09.708Z,18.70
2017-09-06T16:42:43.197Z,18.70
2017-09-06T16:43:15.744Z,18.40
2017-09-06T16:43:48.909Z,18.40
2017-09-06T16:44:21.476Z,18.40
2017-09-06T16:44:54.005Z,18.40
2017-09-06T16:45:26.655Z,18.40
2017-09-06T16:46:00.226Z,18.30
2017-09-06T16:46:32.806Z,18.30
2017-09-06T16:47:05.379Z,18.30
2017-09-06T16:47:37.912Z,18.30
2017-09-06T16:48:10.471Z,18.30
2017-09-06T16:48:43.085Z,18.30
2017-09-06T16:49:15.610Z,18.30
2017-09-06T16:49:48.168Z,18.30
2017-09-06T16:50:20.703Z,18.30
2017-09-06T16:50:53.245Z,18.20
2017-09-06T16:51:25.792Z,18.20
2017-09-06T16:51:58.327Z,18.20
2017-09-06T16:52:30.863Z,18.20
2017-09-06T16:53:03.415Z,18.20
2017-09-06T16:53:35.977Z,18.20
2017-09-06T16:54:08.510Z,18.20
2017-09-06T16:54:41.027Z,18.30
2017-09-06T16:55:13.577Z,18.30
2017-09-06T16:55:46.125Z,18.30
2017-09-06T16:56:18.651Z,18.30
2017-09-06T16:56:51.193Z,18.40
2017-09-06T16:57:23.729Z,18.40
2017-09-06T16:57:56.254Z,18.40
2017-09-06T16:58:28.773Z,18.40
2017-09-06T16:59:01.297Z,18.40
2017-09-06T16:59:33.831Z,18.40
2017-09-06T17:00:06.365Z,18.40
2017-09-06T17:00:38.895Z,18.40
2017-09-06T17:01:11.429Z,18.40
2017-09-06T17:01:43.974Z,18.40
2017-09-06T17:02:16.515Z,18.40
2017-09-06T17:02:49.072Z,18.40